Time;durP1;ratioP1;P1;durP2;ratioP2;P2;SDS_P1;SDS_P2;PMS_P1;PMS_P2;Temp;Humidity;BMP_temperature;BMP_pressure;BME280_temperature;BME280_humidity;BME280_pressure;Samples;Min_cycle;Max_cycle;Signal;HPM_P1;HPM_P2
2022/07/14 00:02:16;;;;;;;1.80;0.80;;;;;;;16.63;69.27;97960.44;6252962;28;20974;-70
2022/07/14 00:05:18;;;;;;;1.33;0.80;;;;;;;16.58;69.50;97957.34;6235152;28;20227;-71
2022/07/14 00:08:21;;;;;;;0.67;0.67;;;;;;;16.52;69.93;97953.47;6235871;28;20300;-71
2022/07/14 00:11:23;;;;;;;1.60;0.80;;;;;;;16.46;70.01;97963.94;6245170;28;20304;-71
2022/07/14 00:14:25;;;;;;;1.03;0.70;;;;;;;16.38;70.56;97962.00;6257901;28;20219;-71
2022/07/14 00:17:27;;;;;;;0.80;0.80;;;;;;;16.34;70.51;97962.47;6256677;28;20825;-71
2022/07/14 00:20:29;;;;;;;1.33;0.80;;;;;;;16.23;70.95;97961.72;6256915;28;20710;-71
2022/07/14 00:23:31;;;;;;;0.67;0.67;;;;;;;16.18;70.95;97963.97;6257055;28;20261;-70
2022/07/14 00:26:33;;;;;;;1.53;1.13;;;;;;;16.10;71.19;97961.25;6256933;28;20697;-71
2022/07/14 00:29:36;;;;;;;4.30;0.80;;;;;;;16.04;71.47;97963.69;6257108;28;20227;-71
2022/07/14 00:32:38;;;;;;;0.87;0.70;;;;;;;15.98;71.67;97964.25;6230521;28;20220;-70
2022/07/14 00:35:41;;;;;;;1.53;0.87;;;;;;;15.92;71.94;97962.22;6244166;28;20241;-70
2022/07/14 00:38:43;;;;;;;1.20;1.10;;;;;;;15.85;72.06;97954.00;6256706;28;20219;-70
2022/07/14 00:41:45;;;;;;;1.10;1.00;;;;;;;15.82;72.10;97956.94;6254636;28;20349;-70
2022/07/14 00:44:47;;;;;;;0.80;0.70;;;;;;;15.79;72.27;97959.88;6255973;28;20231;-71
2022/07/14 00:47:50;;;;;;;0.97;0.77;;;;;;;15.69;72.40;97957.28;6237853;28;20706;-71
2022/07/14 00:50:53;;;;;;;2.23;1.00;;;;;;;15.59;72.50;97953.84;6256229;28;20238;-70
2022/07/14 00:53:56;;;;;;;0.80;0.77;;;;;;;15.51;72.76;97951.88;6223108;28;20234;-70
2022/07/14 00:56:58;;;;;;;1.10;1.00;;;;;;;15.43;72.97;97949.13;6239139;28;20249;-70
2022/07/14 01:00:04;;;;;;;0.87;0.87;;;;;;;15.41;73.09;97943.13;6255847;28;20357;-70
2022/07/14 01:03:06;;;;;;;1.37;0.70;;;;;;;15.37;73.16;97946.22;6255143;28;20239;-71
2022/07/14 01:06:08;;;;;;;0.70;0.70;;;;;;;15.32;73.30;97941.34;6221873;28;20327;-71
2022/07/14 01:09:11;;;;;;;1.23;0.90;;;;;;;15.31;73.30;97946.81;6238064;28;20666;-70
2022/07/14 01:12:14;;;;;;;1.33;0.60;;;;;;;15.29;73.47;97944.28;6238471;28;20215;-70
2022/07/14 01:15:18;;;;;;;3.90;0.90;;;;;;;15.27;73.52;97942.78;6213912;28;20227;-70
2022/07/14 01:18:20;;;;;;;2.43;0.83;;;;;;;15.25;73.42;97940.25;6252816;28;20594;-71
2022/07/14 01:21:22;;;;;;;1.27;0.60;;;;;;;15.26;73.51;97944.59;6254035;28;20230;-70
2022/07/14 01:24:25;;;;;;;1.03;0.80;;;;;;;15.22;73.33;97937.03;6253924;28;20655;-70
2022/07/14 01:27:27;;;;;;;0.90;0.70;;;;;;;15.19;73.44;97934.66;6236909;28;20242;-70
2022/07/14 01:30:29;;;;;;;0.67;0.67;;;;;;;15.18;73.36;97944.47;6255648;28;20695;-70
2022/07/14 01:33:31;;;;;;;0.73;0.73;;;;;;;15.16;73.36;97943.78;6252919;28;20725;-71
2022/07/14 01:36:34;;;;;;;3.07;1.00;;;;;;;15.14;73.38;97943.94;6256019;28;20227;-70
2022/07/14 01:39:36;;;;;;;2.30;0.73;;;;;;;15.12;73.46;97934.41;6237138;28;20231;-70
2022/07/14 01:42:39;;;;;;;0.77;0.70;;;;;;;15.10;73.38;97944.34;6229620;28;20236;-70
2022/07/14 01:45:43;;;;;;;0.67;0.60;;;;;;;15.08;73.38;97943.66;6249285;28;20235;-70
2022/07/14 01:48:45;;;;;;;0.83;0.80;;;;;;;15.05;73.59;97943.97;6253314;28;20424;-71
2022/07/14 01:51:50;;;;;;;1.83;0.70;;;;;;;15.03;73.67;97933.47;6253751;28;20227;-70
2022/07/14 01:54:55;;;;;;;1.30;0.90;;;;;;;14.97;73.79;97936.69;6254444;28;20278;-71
2022/07/14 01:57:59;;;;;;;0.80;0.80;;;;;;;14.95;73.72;97932.53;6254841;28;20230;-71
2022/07/14 02:04:21;;;;;;;1.07;0.90;;;;;;;14.88;74.04;97926.09;6242177;28;20235;-71
2022/07/14 02:07:24;;;;;;;1.00;0.70;;;;;;;14.84;74.24;97936.19;6239616;28;20234;-72
2022/07/14 02:14:06;;;;;;;0.80;0.63;;;;;;;14.77;74.21;97927.94;6217964;28;20238;-71
2022/07/14 02:17:09;;;;;;;0.70;0.70;;;;;;;14.75;74.53;97929.91;6233265;28;20320;-71
2022/07/14 02:20:11;;;;;;;1.00;0.70;;;;;;;14.73;74.76;97931.03;6237071;28;20504;-71
2022/07/14 02:23:13;;;;;;;3.03;0.80;;;;;;;14.71;74.66;97927.66;6235866;28;20593;-70
2022/07/14 02:26:15;;;;;;;0.80;0.80;;;;;;;14.70;74.57;97926.84;6237584;28;20230;-70
2022/07/14 02:29:18;;;;;;;1.67;0.77;;;;;;;14.73;74.72;97931.03;6253462;28;20273;-70
2022/07/14 02:32:20;;;;;;;2.53;0.90;;;;;;;14.75;74.51;97932.56;6253423;28;20254;-70
2022/07/14 02:35:23;;;;;;;0.73;0.73;;;;;;;14.75;74.37;97927.25;6253966;28;20241;-70
2022/07/14 02:38:25;;;;;;;1.00;0.70;;;;;;;14.75;74.30;97931.72;6254039;28;20674;-71
2022/07/14 02:41:27;;;;;;;2.47;0.80;;;;;;;14.81;74.19;97925.00;6236218;28;20227;-69
2022/07/14 02:44:29;;;;;;;0.83;0.60;;;;;;;14.81;74.30;97928.50;6228818;28;20223;-71
2022/07/14 02:47:31;;;;;;;1.10;1.00;;;;;;;14.83;74.18;97929.19;6245941;28;20318;-70
2022/07/14 02:50:36;;;;;;;3.23;0.80;;;;;;;14.85;74.33;97926.41;6235830;28;20300;-70
2022/07/14 02:53:38;;;;;;;0.67;0.67;;;;;;;14.86;74.47;97928.06;6251819;28;20243;-70
2022/07/14 02:56:40;;;;;;;1.57;0.70;;;;;;;14.89;74.29;97931.25;6234990;28;20227;-71
2022/07/14 02:59:43;;;;;;;0.93;0.90;;;;;;;14.94;74.18;97926.38;6253308;28;20231;-71
2022/07/14 03:02:45;;;;;;;1.20;0.60;;;;;;;14.96;74.21;97929.72;6252970;28;20227;-69
2022/07/14 03:05:47;;;;;;;0.57;0.53;;;;;;;14.97;74.43;97936.69;6235507;28;20257;-71
2022/07/14 03:08:52;;;;;;;0.70;0.70;;;;;;;14.97;74.51;97931.38;6252175;28;20234;-71
2022/07/14 03:11:55;;;;;;;0.63;0.60;;;;;;;15.00;74.75;97927.59;6254019;28;20316;-71
2022/07/14 03:14:58;;;;;;;0.70;0.70;;;;;;;15.04;74.28;97927.19;6219804;28;20223;-70
2022/07/14 03:18:00;;;;;;;0.70;0.70;;;;;;;15.08;74.27;97933.03;6252983;28;20226;-71
2022/07/14 03:21:07;;;;;;;0.70;0.70;;;;;;;15.12;74.21;97929.94;6235440;28;20314;-70
2022/07/14 03:24:13;;;;;;;1.23;0.73;;;;;;;15.17;74.05;97932.19;6252284;28;20782;-71
2022/07/14 03:27:15;;;;;;;1.23;0.60;;;;;;;15.21;74.39;97930.03;6234316;28;20332;-71
2022/07/14 03:30:18;;;;;;;2.20;0.83;;;;;;;15.27;73.90;97935.59;6234381;28;20210;-71
2022/07/14 03:33:20;;;;;;;2.13;0.77;;;;;;;15.29;74.21;97924.81;6234705;28;20206;-71
2022/07/14 03:36:22;;;;;;;0.60;0.60;;;;;;;15.33;74.06;97931.53;6251198;28;20256;-71
2022/07/14 03:39:24;;;;;;;3.17;1.07;;;;;;;15.38;74.46;97929.25;6218037;28;20223;-71
2022/07/14 03:42:27;;;;;;;2.30;0.60;;;;;;;15.40;74.32;97922.81;6226565;28;20359;-71
2022/07/14 03:45:30;;;;;;;0.73;0.63;;;;;;;15.44;74.19;97920.72;6209800;28;20232;-71
2022/07/14 03:48:33;;;;;;;0.50;0.50;;;;;;;15.48;74.20;97922.06;6227889;28;20305;-71
2022/07/14 03:51:42;;;;;;;1.80;0.60;;;;;;;15.56;74.07;97924.06;6238889;28;20223;-70
2022/07/14 03:54:47;;;;;;;1.47;0.70;;;;;;;15.61;73.98;97916.44;6239317;28;20239;-71
2022/07/14 03:57:52;;;;;;;1.20;0.60;;;;;;;15.67;73.98;97910.56;6255812;28;20235;-70
2022/07/14 04:00:55;;;;;;;0.60;0.60;;;;;;;15.76;73.71;97917.63;6238712;28;20234;-71
2022/07/14 04:03:57;;;;;;;1.83;0.70;;;;;;;15.84;73.66;97915.06;6255576;28;20594;-71
2022/07/14 04:06:59;;;;;;;2.87;0.50;;;;;;;15.94;73.56;97920.31;6256039;28;20235;-71
2022/07/14 04:10:01;;;;;;;1.07;0.97;;;;;;;16.05;73.33;97920.09;6238998;28;20344;-71
2022/07/14 04:13:04;;;;;;;1.40;0.77;;;;;;;16.10;73.16;97921.31;6230787;28;20278;-71
2022/07/14 04:16:07;;;;;;;2.40;0.70;;;;;;;16.11;73.25;97922.97;6223860;28;20231;-71
2022/07/14 04:19:14;;;;;;;1.03;0.70;;;;;;;16.12;73.13;97916.66;6255469;28;20317;-71
2022/07/14 04:22:18;;;;;;;1.17;0.80;;;;;;;16.17;73.35;97908.22;6254961;28;20227;-71
2022/07/14 04:25:40;;;;;;;3.13;0.70;;;;;;;16.19;73.24;97912.41;6255627;28;20231;-71
2022/07/14 04:28:42;;;;;;;0.87;0.70;;;;;;;16.24;73.08;97918.13;6238430;28;20234;-71
2022/07/14 04:31:44;;;;;;;2.27;0.93;;;;;;;16.31;73.21;97912.16;6239346;28;20373;-71
2022/07/14 04:34:52;;;;;;;0.70;0.70;;;;;;;16.37;73.28;97909.72;6230382;28;20224;-71
2022/07/14 04:37:54;;;;;;;0.60;0.60;;;;;;;16.45;73.24;97916.97;6230842;28;20231;-70
2022/07/14 04:41:03;;;;;;;0.70;0.70;;;;;;;16.53;73.51;97920.53;6238483;28;20231;-71
2022/07/14 04:44:10;;;;;;;0.60;0.60;;;;;;;16.58;73.34;97922.72;6239410;28;20231;-71
2022/07/14 04:47:17;;;;;;;0.70;0.70;;;;;;;16.62;73.18;97923.28;6238352;28;20698;-71
2022/07/14 04:53:40;;;;;;;0.67;0.60;;;;;;;16.63;73.32;97912.47;6238260;28;20310;-71
2022/07/14 04:57:04;;;;;;;0.80;0.80;;;;;;;16.69;73.07;97914.50;6221272;28;20233;-71
2022/07/14 05:00:11;;;;;;;0.60;0.60;;;;;;;16.78;73.35;97915.38;6238042;28;20207;-71
2022/07/14 05:03:13;;;;;;;0.73;0.63;;;;;;;16.90;72.86;97914.97;6237356;28;20566;-71
2022/07/14 05:06:16;;;;;;;2.13;0.70;;;;;;;17.02;72.81;97909.38;6237766;28;20234;-70
2022/07/14 05:09:19;;;;;;;0.70;0.60;;;;;;;17.09;72.55;97913.94;6252253;28;20254;-72
2022/07/14 05:12:21;;;;;;;1.20;0.70;;;;;;;17.15;72.60;97912.47;6249857;28;20306;-71
2022/07/14 05:15:23;;;;;;;1.33;0.70;;;;;;;17.24;72.23;97909.69;6253515;28;20223;-71
2022/07/14 05:18:27;;;;;;;0.83;0.60;;;;;;;17.34;72.03;97912.22;6221137;28;20310;-71
2022/07/14 05:21:30;;;;;;;0.60;0.60;;;;;;;17.43;72.14;97916.59;6221426;28;20237;-69
2022/07/14 05:24:34;;;;;;;0.97;0.53;;;;;;;17.53;72.33;97917.31;6237081;28;20293;-71
2022/07/14 05:27:38;;;;;;;0.60;0.60;;;;;;;17.66;72.14;97916.91;6236747;28;20267;-71
2022/07/14 05:30:44;;;;;;;0.70;0.70;;;;;;;17.83;70.70;97917.78;6226226;28;20396;-72
2022/07/14 05:33:47;;;;;;;0.60;0.60;;;;;;;18.05;70.02;97914.50;6228190;28;20232;-72
2022/07/14 05:36:49;;;;;;;0.80;0.80;;;;;;;18.22;69.14;97910.84;6251412;28;20318;-71
2022/07/14 05:39:51;;;;;;;0.77;0.63;;;;;;;18.32;68.81;97908.84;6230213;28;20235;-71
2022/07/14 05:42:53;;;;;;;0.60;0.60;;;;;;;18.39;68.82;97912.50;6244681;28;20226;-71
2022/07/14 05:46:02;;;;;;;0.77;0.77;;;;;;;18.51;68.27;97912.19;6252720;28;20238;-71
2022/07/14 05:49:05;;;;;;;0.87;0.60;;;;;;;18.62;68.12;97920.75;6236155;28;20235;-72
2022/07/14 05:52:12;;;;;;;0.83;0.70;;;;;;;18.70;68.00;97919.91;6236322;28;20348;-71
2022/07/14 05:55:14;;;;;;;0.83;0.60;;;;;;;18.74;67.51;97921.25;6236813;28;20317;-70
2022/07/14 05:58:17;;;;;;;0.60;0.60;;;;;;;18.75;67.58;97922.91;6219432;28;20399;-72
2022/07/14 06:01:21;;;;;;;0.50;0.50;;;;;;;18.77;67.94;97924.41;6219811;28;20238;-71
2022/07/14 06:04:25;;;;;;;2.30;0.77;;;;;;;18.85;68.05;97926.25;6252390;28;20265;-72
2022/07/14 06:07:27;;;;;;;0.50;0.50;;;;;;;18.89;67.89;97922.22;6253342;28;20249;-69
2022/07/14 06:10:29;;;;;;;1.30;0.70;;;;;;;18.91;67.88;97916.69;6243606;28;20244;-67
2022/07/14 06:13:35;;;;;;;0.63;0.50;;;;;;;18.90;68.07;97928.41;6240242;28;20376;-70
2022/07/14 06:16:39;;;;;;;1.17;0.60;;;;;;;18.93;68.42;97928.06;6252083;28;20706;-68
2022/07/14 06:19:42;;;;;;;0.77;0.57;;;;;;;19.10;67.99;97919.00;6252439;28;20223;-70
2022/07/14 06:22:44;;;;;;;0.50;0.50;;;;;;;19.28;67.64;97913.44;6235777;28;20235;-73
2022/07/14 06:25:46;;;;;;;0.40;0.40;;;;;;;19.56;66.74;97914.72;6253859;28;20625;-72
2022/07/14 06:28:53;;;;;;;0.60;0.47;;;;;;;19.86;65.40;97915.75;6234492;28;20322;-69
2022/07/14 06:31:55;;;;;;;0.60;0.50;;;;;;;19.99;65.06;97907.94;6236989;28;20230;-74
2022/07/14 06:34:58;;;;;;;0.70;0.70;;;;;;;20.24;63.31;97911.31;6251830;28;20276;-75
2022/07/14 06:38:01;;;;;;;0.43;0.43;;;;;;;20.46;63.05;97907.81;6235002;28;20239;-73
2022/07/14 06:41:08;;;;;;;0.77;0.50;;;;;;;20.59;61.63;97908.03;6255804;28;20288;-75
2022/07/14 06:44:17;;;;;;;0.93;0.57;;;;;;;20.83;59.65;97907.00;6252206;28;20223;-75
2022/07/14 06:47:30;;;;;;;0.30;0.30;;;;;;;21.13;56.71;97907.88;6251206;28;20722;-75
2022/07/14 06:50:33;;;;;;;0.93;0.40;;;;;;;21.14;55.79;97904.19;6218550;28;20243;-71
2022/07/14 06:53:35;;;;;;;0.30;0.30;;;;;;;21.13;53.73;97907.03;6252801;28;20231;-75
2022/07/14 06:56:38;;;;;;;0.50;0.50;;;;;;;21.54;52.94;97910.13;6234793;28;20230;-72
2022/07/14 06:59:40;;;;;;;0.30;0.30;;;;;;;22.08;51.06;97906.06;6252290;28;20333;-74
2022/07/14 07:02:42;;;;;;;0.30;0.30;;;;;;;22.15;50.79;97913.38;6235600;28;20234;-72
2022/07/14 07:09:04;;;;;;;0.77;0.40;;;;;;;22.28;48.45;97900.88;6234297;28;20641;-72
2022/07/14 07:12:07;;;;;;;0.40;0.40;;;;;;;22.53;50.89;97909.41;6236671;28;20207;-71
2022/07/14 07:15:09;;;;;;;0.57;0.37;;;;;;;22.62;50.74;97905.56;6252136;28;20453;-72
2022/07/14 07:18:12;;;;;;;0.40;0.40;;;;;;;23.13;48.43;97892.75;6252482;28;20697;-72
2022/07/14 07:21:16;;;;;;;0.40;0.40;;;;;;;23.70;47.30;97893.47;6236151;28;20215;-73
2022/07/14 07:24:18;;;;;;;0.33;0.33;;;;;;;24.35;44.47;97884.78;6235261;28;20207;-72
2022/07/14 07:27:20;;;;;;;1.07;0.37;;;;;;;24.88;43.12;97874.81;6252470;28;20238;-73
2022/07/14 07:30:23;;;;;;;1.20;0.47;;;;;;;25.51;38.63;97868.91;6251691;28;20223;-71
2022/07/14 07:33:25;;;;;;;0.83;0.60;;;;;;;26.11;36.54;97870.31;6252990;28;20223;-72
2022/07/14 07:36:27;;;;;;;1.03;0.40;;;;;;;26.61;35.89;97873.13;6251183;28;20236;-71
2022/07/14 07:39:29;;;;;;;0.60;0.40;;;;;;;27.07;34.23;97873.59;6252585;28;20235;-72
2022/07/14 07:42:31;;;;;;;0.40;0.40;;;;;;;27.64;33.61;97868.84;6253022;28;20226;-73
2022/07/14 07:45:34;;;;;;;0.80;0.57;;;;;;;28.03;33.33;97863.97;6240686;28;20368;-72
2022/07/14 07:48:36;;;;;;;0.70;0.60;;;;;;;28.38;31.39;97854.06;6258678;28;20234;-72
2022/07/14 07:51:38;;;;;;;0.77;0.50;;;;;;;28.77;31.30;97854.47;6257113;28;20703;-71
2022/07/14 07:54:41;;;;;;;1.10;0.57;;;;;;;29.01;29.43;97850.75;6238067;28;20223;-72
2022/07/14 07:58:03;;;;;;;1.73;0.50;;;;;;;29.32;29.16;97847.66;6251362;28;20366;-72
2022/07/14 08:01:05;;;;;;;0.95;0.60;;;;;;;29.62;27.74;97846.69;6234680;28;20251;-72
2022/07/14 08:04:08;;;;;;;0.50;0.50;;;;;;;30.13;27.88;97845.00;6252406;28;20275;-72
2022/07/14 08:07:10;;;;;;;1.10;0.55;;;;;;;30.28;28.77;97834.38;6250933;28;20890;-72
2022/07/14 08:10:13;;;;;;;0.50;0.50;;;;;;;30.59;27.67;97839.31;6248436;28;20230;-72
2022/07/14 08:13:15;;;;;;;1.65;0.50;;;;;;;31.05;27.30;97846.31;6251256;28;20223;-72
2022/07/14 08:16:17;;;;;;;1.13;0.60;;;;;;;31.12;26.74;97848.91;6251299;28;20654;-73
2022/07/14 08:19:19;;;;;;;0.40;0.40;;;;;;;31.23;24.15;97831.63;6250643;28;20321;-71
2022/07/14 08:22:24;;;;;;;0.82;0.52;;;;;;;31.50;23.29;97824.34;6252239;28;20235;-73
2022/07/14 08:25:26;;;;;;;1.75;0.55;;;;;;;31.65;22.45;97828.34;6252359;28;20238;-72
2022/07/14 08:28:28;;;;;;;0.60;0.40;;;;;;;32.15;22.92;97839.00;6234914;28;20600;-73
2022/07/14 08:31:30;;;;;;;0.90;0.60;;;;;;;32.35;22.28;97827.50;6251458;28;20242;-72
2022/07/14 08:34:38;;;;;;;0.40;0.40;;;;;;;32.64;22.25;97813.25;6237551;28;20239;-72
2022/07/14 08:37:41;;;;;;;1.45;0.70;;;;;;;32.85;21.73;97811.53;6238478;28;20218;-72
2022/07/14 08:40:53;;;;;;;0.95;0.40;;;;;;;33.26;21.97;97812.66;6230866;28;20586;-72
2022/07/14 08:43:55;;;;;;;2.13;0.60;;;;;;;33.65;21.87;97809.53;6254962;28;20758;-74
2022/07/14 08:46:57;;;;;;;0.75;0.60;;;;;;;33.63;21.35;97807.09;6222144;28;20736;-73
2022/07/14 08:49:59;;;;;;;0.75;0.50;;;;;;;33.60;20.88;97804.88;6238756;28;20261;-72
2022/07/14 08:53:04;;;;;;;0.73;0.43;;;;;;;33.58;20.18;97807.06;6257139;28;20621;-72
2022/07/14 08:56:09;;;;;;;1.13;0.57;;;;;;;33.92;21.12;97804.75;6256215;28;20257;-73
2022/07/14 08:59:11;;;;;;;0.85;0.63;;;;;;;34.11;21.93;97801.50;6238132;28;20730;-73
2022/07/14 09:02:13;;;;;;;0.40;0.40;;;;;;;34.29;20.95;97796.34;6257208;28;20227;-73
2022/07/14 09:05:16;;;;;;;0.95;0.60;;;;;;;34.36;20.89;97809.78;6222223;28;20318;-73
2022/07/14 09:08:18;;;;;;;0.50;0.50;;;;;;;34.81;21.45;97806.25;6238025;28;20234;-74
2022/07/14 09:11:22;;;;;;;0.77;0.50;;;;;;;35.05;20.62;97800.97;6236569;28;20306;-73
2022/07/14 09:14:28;;;;;;;0.40;0.40;;;;;;;35.20;21.36;97797.41;6255271;28;20226;-73
2022/07/14 09:17:32;;;;;;;0.52;0.50;;;;;;;35.27;20.19;97800.69;6255499;28;20779;-73
2022/07/14 09:20:36;;;;;;;1.15;0.63;;;;;;;35.58;20.76;97791.25;6237413;28;20359;-73
2022/07/14 09:23:40;;;;;;;0.50;0.50;;;;;;;35.73;20.12;97795.88;6255651;28;20227;-74
2022/07/14 09:26:46;;;;;;;1.27;0.40;;;;;;;35.77;19.72;97785.97;6237409;28;20227;-74
2022/07/14 09:29:58;;;;;;;0.75;0.68;;;;;;;35.82;19.82;97780.44;6254992;28;20231;-73
2022/07/14 09:33:04;;;;;;;0.57;0.57;;;;;;;36.48;21.06;97778.09;6255701;28;20774;-73
2022/07/14 09:36:26;;;;;;;0.80;0.55;;;;;;;36.77;20.05;97774.56;6243408;28;20592;-72
2022/07/14 09:39:28;;;;;;;0.50;0.50;;;;;;;36.74;19.50;97772.38;6254124;28;20281;-73
2022/07/14 09:42:57;;;;;;;1.75;0.55;;;;;;;37.08;19.97;97775.88;6220272;28;20219;-75
2022/07/14 09:45:59;;;;;;;2.58;0.60;;;;;;;36.78;19.00;97774.28;6253822;28;20246;-72
2022/07/14 09:49:09;;;;;;;1.65;0.60;;;;;;;36.10;19.54;97776.97;6254282;28;20242;-70
2022/07/14 09:52:11;;;;;;;2.03;0.60;;;;;;;35.97;19.63;97768.53;6255677;28;20714;-73
2022/07/14 09:55:20;;;;;;;0.47;0.40;;;;;;;36.10;19.85;97765.16;6236570;28;20245;-72
2022/07/14 09:58:33;;;;;;;0.50;0.50;;;;;;;36.07;19.90;97762.97;6236529;28;20295;-74
2022/07/14 11:01:47;;;;;;;0.50;0.50;;;;;;;38.27;18.64;97714.28;2729604;28;22244;-69
2022/07/14 11:05:08;;;;;;;0.70;0.57;;;;;;;38.82;17.50;97704.22;6252494;28;20699;-71
2022/07/14 11:08:11;;;;;;;0.50;0.50;;;;;;;38.98;16.53;97704.78;6235523;28;20611;-71
2022/07/14 11:11:19;;;;;;;0.50;0.50;;;;;;;39.16;16.46;97706.59;6252234;28;20688;-71
2022/07/14 11:14:24;;;;;;;1.95;0.60;;;;;;;39.16;16.77;97708.53;6255471;28;20227;-71
2022/07/14 11:17:39;;;;;;;1.48;0.60;;;;;;;39.55;16.49;97708.03;6235129;28;20227;-72
2022/07/14 11:20:48;;;;;;;1.75;0.63;;;;;;;38.87;16.44;97708.81;6253456;28;20223;-71
2022/07/14 11:23:50;;;;;;;0.50;0.50;;;;;;;38.01;17.06;97722.13;6234012;28;20235;-73
2022/07/14 11:26:52;;;;;;;1.38;0.60;;;;;;;38.09;18.23;97715.97;6252809;28;20609;-73
2022/07/14 11:29:57;;;;;;;1.30;0.43;;;;;;;37.94;18.27;97714.22;6252903;28;20288;-71
2022/07/14 11:33:11;;;;;;;0.65;0.50;;;;;;;37.25;18.01;97726.72;6252504;28;20223;-71
2022/07/14 11:36:18;;;;;;;0.50;0.50;;;;;;;38.05;18.04;97712.94;6252800;28;20762;-71
2022/07/14 11:39:42;;;;;;;0.77;0.55;;;;;;;37.30;17.54;97704.63;6252209;28;20231;-71
2022/07/14 11:43:24;;;;;;;0.77;0.60;;;;;;;37.00;17.93;97693.97;6229230;28;20231;-70
2022/07/14 11:46:26;;;;;;;0.63;0.63;;;;;;;37.23;18.00;97701.44;6227887;28;20315;-71
2022/07/14 11:49:29;;;;;;;0.57;0.50;;;;;;;37.83;18.84;97689.88;6252412;28;20242;-72
2022/07/14 11:52:33;;;;;;;3.20;0.70;;;;;;;37.85;17.56;97688.44;6252299;28;20384;-72
2022/07/14 11:55:37;;;;;;;0.75;0.50;;;;;;;37.63;17.27;97680.00;6234563;28;20741;-71
2022/07/14 11:58:40;;;;;;;0.98;0.40;;;;;;;37.20;18.42;97682.75;6251752;28;20608;-71
2022/07/14 12:02:12;;;;;;;0.80;0.50;;;;;;;36.50;18.69;97681.56;6233701;28;20601;-71
2022/07/14 12:05:15;;;;;;;0.50;0.50;;;;;;;36.16;18.25;97665.06;6202667;28;20233;-73
2022/07/14 12:08:25;;;;;;;0.40;0.40;;;;;;;36.39;18.98;97661.59;6204077;28;20235;-73
2022/07/14 12:11:28;;;;;;;0.50;0.50;;;;;;;36.90;19.61;97666.56;6208686;28;20229;-73
2022/07/14 12:14:31;;;;;;;0.45;0.45;;;;;;;37.54;18.63;97657.75;6223627;28;20240;-72
2022/07/14 12:17:46;;;;;;;0.40;0.40;;;;;;;38.25;18.39;97653.91;6207837;28;20256;-72
2022/07/14 12:20:48;;;;;;;1.25;0.60;;;;;;;38.58;18.29;97642.88;6207600;28;20453;-71
2022/07/14 12:23:55;;;;;;;0.98;0.70;;;;;;;39.01;17.67;97629.63;6206492;28;20241;-71
2022/07/14 12:27:05;;;;;;;0.73;0.50;;;;;;;39.57;17.72;97636.69;6208269;28;20236;-72
2022/07/14 12:30:08;;;;;;;0.70;0.50;;;;;;;39.84;16.45;97631.91;6207193;28;20231;-72
2022/07/14 12:33:15;;;;;;;2.33;0.75;;;;;;;39.89;15.65;97621.84;6207959;28;20220;-71
2022/07/14 12:36:23;;;;;;;0.50;0.50;;;;;;;39.02;16.68;97625.75;6208232;28;20711;-71
2022/07/14 12:39:27;;;;;;;0.85;0.60;;;;;;;39.25;17.39;97635.72;6208178;28;20904;-72
2022/07/14 12:42:29;;;;;;;2.05;0.70;;;;;;;39.43;17.17;97632.00;6208308;28;20240;-71
2022/07/14 12:45:31;;;;;;;1.55;0.80;;;;;;;39.80;16.17;97628.13;6206159;28;20228;-70
2022/07/14 12:48:55;;;;;;;0.63;0.55;;;;;;;39.61;15.85;97623.91;6208533;28;20243;-73
2022/07/14 12:51:57;;;;;;;0.88;0.70;;;;;;;39.78;15.56;97618.50;6222819;28;20225;-71
2022/07/14 12:55:00;;;;;;;0.95;0.70;;;;;;;40.14;16.15;97612.91;6206404;28;20239;-71
2022/07/14 12:58:13;;;;;;;3.60;0.77;;;;;;;40.17;15.52;97604.81;6207080;28;20315;-70
2022/07/14 13:01:15;;;;;;;1.13;0.85;;;;;;;40.16;14.44;97597.63;6222168;28;20668;-71
2022/07/14 13:04:34;;;;;;;4.50;0.90;;;;;;;39.97;14.78;97607.28;6225601;28;20254;-70
2022/07/14 13:07:40;;;;;;;1.08;0.70;;;;;;;39.89;15.51;97599.75;6229227;28;20235;-71
2022/07/14 13:10:56;;;;;;;0.70;0.70;;;;;;;39.97;14.82;97597.03;6232017;28;20289;-71
2022/07/14 13:13:59;;;;;;;1.40;0.77;;;;;;;40.32;14.82;97588.97;6231707;28;20232;-71
2022/07/14 13:17:01;;;;;;;1.00;0.77;;;;;;;40.85;14.21;97592.44;6231048;28;20703;-71
2022/07/14 13:20:04;;;;;;;4.70;1.27;;;;;;;40.90;15.26;97586.78;6231498;28;20236;-74
2022/07/14 13:23:06;;;;;;;0.60;0.60;;;;;;;41.25;14.47;97587.66;6231123;28;20247;-72
2022/07/14 13:26:11;;;;;;;1.15;0.98;;;;;;;41.56;14.64;97581.19;6230852;28;20628;-71
2022/07/14 13:29:14;;;;;;;0.88;0.77;;;;;;;40.86;14.84;97585.78;6232078;28;20238;-71
2022/07/14 13:32:18;;;;;;;3.13;0.80;;;;;;;40.54;15.60;97578.63;6221337;28;20228;-71
2022/07/14 13:35:20;;;;;;;2.00;0.80;;;;;;;40.70;14.97;97578.25;6221940;28;20326;-70
2022/07/14 13:38:22;;;;;;;1.20;0.70;;;;;;;41.12;15.19;97572.03;6229966;28;20624;-72
2022/07/14 13:41:24;;;;;;;3.65;0.90;;;;;;;41.28;15.73;97575.94;6229807;28;20228;-71
2022/07/14 13:44:27;;;;;;;2.15;1.00;;;;;;;41.24;15.08;97565.81;6230824;28;20645;-71
2022/07/14 13:47:29;;;;;;;1.05;0.70;;;;;;;41.07;14.62;97568.56;6230571;28;20235;-73
2022/07/14 13:53:52;;;;;;;1.27;0.82;;;;;;;41.37;14.62;97559.31;6234858;28;20224;-71
2022/07/14 13:56:55;;;;;;;1.63;0.93;;;;;;;41.04;15.52;97542.31;6235648;28;20284;-72
2022/07/14 13:59:57;;;;;;;1.38;0.90;;;;;;;41.19;14.75;97549.38;6233543;28;20231;-72
2022/07/14 14:06:20;;;;;;;4.03;0.80;;;;;;;42.90;13.11;97536.28;6236561;28;20719;-71
2022/07/14 14:09:27;;;;;;;1.42;0.60;;;;;;;43.86;12.47;97537.13;6253886;28;20759;-74
2022/07/14 14:12:29;;;;;;;0.75;0.63;;;;;;;45.18;10.95;97542.38;6228663;28;20251;-71
2022/07/14 14:15:31;;;;;;;0.77;0.60;;;;;;;45.74;11.05;97532.06;6234217;28;20226;-71
2022/07/14 14:18:35;;;;;;;1.65;0.70;;;;;;;45.59;11.24;97535.66;6255822;28;20254;-71
2022/07/14 14:21:38;;;;;;;0.60;0.60;;;;;;;45.60;11.75;97528.91;6252753;28;20639;-73
2022/07/14 14:24:40;;;;;;;2.58;0.80;;;;;;;45.40;11.83;97527.09;6253983;28;20235;-72
2022/07/14 14:27:42;;;;;;;1.77;0.60;;;;;;;46.14;11.35;97526.41;6235982;28;20241;-72
2022/07/14 14:30:44;;;;;;;0.85;0.65;;;;;;;46.71;10.43;97525.09;6252946;28;20257;-71
2022/07/14 14:33:46;;;;;;;2.80;0.63;;;;;;;48.11;10.17;97510.13;6253536;28;20288;-72
2022/07/14 14:36:48;;;;;;;2.08;0.60;;;;;;;49.59;8.63;97507.97;6252070;28;20314;-72
2022/07/14 14:39:51;;;;;;;0.73;0.60;;;;;;;49.27;9.15;97511.16;6236134;28;20235;-71
2022/07/14 14:42:53;;;;;;;1.52;0.80;;;;;;;50.68;8.93;97501.84;6235241;28;20265;-73
2022/07/14 14:45:55;;;;;;;0.73;0.70;;;;;;;51.59;7.58;97493.13;6253126;28;20242;-72
2022/07/14 14:49:05;;;;;;;3.35;0.80;;;;;;;51.72;7.92;97490.72;6253682;28;20310;-71
2022/07/14 14:52:07;;;;;;;1.00;0.70;;;;;;;52.51;6.81;97486.03;6235355;28;20239;-71
2022/07/14 14:55:09;;;;;;;1.15;0.55;;;;;;;52.93;6.26;97476.72;6251980;28;20888;-71
2022/07/14 14:58:11;;;;;;;0.93;0.60;;;;;;;53.11;7.13;97471.03;6252814;28;20281;-72
2022/07/14 15:01:19;;;;;;;0.93;0.60;;;;;;;52.97;6.54;97464.22;6252898;28;20315;-74
2022/07/14 15:04:21;;;;;;;0.50;0.50;;;;;;;52.39;6.19;97456.22;6174124;28;20240;-71
2022/07/14 15:07:24;;;;;;;1.52;0.60;;;;;;;53.14;5.96;97451.25;6228897;28;20322;-72
2022/07/14 15:10:26;;;;;;;1.00;0.77;;;;;;;53.03;5.57;97439.19;6228993;28;20230;-71
2022/07/14 15:13:28;;;;;;;0.50;0.50;;;;;;;52.47;7.19;97449.38;6210070;28;20239;-70
2022/07/14 15:16:30;;;;;;;1.02;0.68;;;;;;;52.65;6.44;97429.63;6228893;28;20749;-73
2022/07/14 15:19:32;;;;;;;1.40;0.60;;;;;;;52.45;6.79;97417.97;6229050;28;20737;-70
2022/07/14 15:22:35;;;;;;;2.67;0.65;;;;;;;51.77;8.30;97417.13;6227555;28;20239;-71
2022/07/14 15:25:37;;;;;;;0.68;0.68;;;;;;;52.50;6.87;97411.94;6229872;28;20242;-71
2022/07/14 15:28:39;;;;;;;0.88;0.88;;;;;;;52.52;6.59;97411.50;6228371;28;20235;-72
2022/07/14 15:31:41;;;;;;;0.50;0.50;;;;;;;52.03;7.96;97398.25;6226703;28;20235;-70
2022/07/14 15:34:44;;;;;;;0.60;0.43;;;;;;;50.97;8.34;97402.41;6210468;28;20231;-72
2022/07/14 15:37:46;;;;;;;0.60;0.60;;;;;;;50.76;9.70;97391.84;6226670;28;20611;-71
2022/07/14 15:44:08;;;;;;;2.28;0.55;;;;;;;45.96;13.53;97390.38;6208037;28;20252;-71
2022/07/14 15:47:11;;;;;;;0.50;0.50;;;;;;;43.14;16.07;97380.00;6236371;28;20253;-70
2022/07/14 15:50:13;;;;;;;1.17;0.60;;;;;;;42.12;17.47;97371.31;6238051;28;20641;-70
2022/07/14 15:53:15;;;;;;;2.38;0.55;;;;;;;46.62;13.91;97370.84;6233324;28;20231;-70